Time;durP1;ratioP1;P1;durP2;ratioP2;P2;SDS_P1;SDS_P2;PMS_P1;PMS_P2;Temp;Humidity;BMP_temperature;BMP_pressure;BME280_temperature;BME280_humidity;BME280_pressure;Samples;Min_cycle;Max_cycle;Signal;HPM_P1;HPM_P2
2022/06/16 00:00:36;;;;;;;6.38;2.92;;;22.40;99.90;;;;;;5071382;28;20025;-85
2022/06/16 00:03:03;;;;;;;7.50;3.20;;;22.40;99.90;;;;;;5070125;28;20428;-85
2022/06/16 00:05:33;;;;;;;10.10;3.10;;;22.50;99.90;;;;;;5079003;28;20021;-85
2022/06/16 00:08:00;;;;;;;8.98;3.47;;;22.40;99.90;;;;;;5078778;28;20013;-85
2022/06/16 00:10:25;;;;;;;8.27;3.22;;;22.40;99.90;;;;;;5076166;28;20024;-84
2022/06/16 00:12:51;;;;;;;6.35;2.83;;;22.30;99.90;;;;;;5077631;28;20377;-85
2022/06/16 00:15:20;;;;;;;10.35;3.28;;;22.30;99.90;;;;;;5073421;28;20111;-85
2022/06/16 00:17:45;;;;;;;7.13;3.45;;;22.30;99.90;;;;;;5075735;28;20016;-85
2022/06/16 00:20:11;;;;;;;9.77;3.08;;;22.30;99.90;;;;;;5051590;28;20082;-85
2022/06/16 00:22:38;;;;;;;7.72;3.22;;;22.20;99.90;;;;;;5072889;28;20028;-85
2022/06/16 00:25:04;;;;;;;9.45;2.83;;;22.30;99.90;;;;;;5074862;28;20059;-85
2022/06/16 00:27:30;;;;;;;8.43;3.22;;;22.20;99.90;;;;;;5074062;28;20028;-84
2022/06/16 00:29:57;;;;;;;5.97;2.95;;;22.20;99.90;;;;;;5080109;28;20026;-85
2022/06/16 00:32:22;;;;;;;7.95;3.00;;;22.20;99.90;;;;;;5079220;28;20131;-85
2022/06/16 00:34:48;;;;;;;7.07;3.03;;;22.20;99.90;;;;;;5083756;28;20106;-84
2022/06/16 00:37:14;;;;;;;9.43;2.97;;;22.10;99.90;;;;;;5077902;28;20284;-85
2022/06/16 00:39:40;;;;;;;8.68;3.08;;;22.10;99.90;;;;;;5080882;28;20391;-85
2022/06/16 00:42:17;;;;;;;7.10;3.03;;;22.10;99.90;;;;;;5079143;28;20028;-85
2022/06/16 00:44:51;;;;;;;8.40;3.05;;;22.00;99.90;;;;;;5078849;28;20070;-84
2022/06/16 00:47:19;;;;;;;11.30;3.17;;;22.00;99.90;;;;;;5086241;28;20024;-85
2022/06/16 00:49:46;;;;;;;6.97;3.00;;;22.00;99.90;;;;;;5077439;28;20083;-85
2022/06/16 00:52:15;;;;;;;6.55;3.05;;;21.90;99.90;;;;;;5079798;28;20046;-85
2022/06/16 00:54:44;;;;;;;11.77;3.70;;;21.90;99.90;;;;;;5066004;28;20043;-85
2022/06/16 00:57:16;;;;;;;6.25;2.80;;;21.90;99.90;;;;;;5078986;28;20511;-85
2022/06/16 00:59:43;;;;;;;6.60;3.28;;;21.80;99.90;;;;;;5074050;28;20024;-85
2022/06/16 01:02:10;;;;;;;9.63;2.78;;;21.80;99.90;;;;;;5073709;28;20089;-85
2022/06/16 01:04:52;;;;;;;7.15;3.35;;;21.80;99.90;;;;;;5054966;28;20024;-85
2022/06/16 01:07:30;;;;;;;7.18;3.08;;;21.70;99.90;;;;;;5082617;28;20023;-85
2022/06/16 01:09:57;;;;;;;7.75;2.95;;;21.70;99.90;;;;;;5078594;28;20016;-85
2022/06/16 01:15:54;;;;;;;8.32;3.22;;;21.50;99.90;;;;;;5077486;28;20055;-85
2022/06/16 01:18:45;;;;;;;10.18;3.08;;;21.50;99.90;;;;;;5067032;28;20056;-85
2022/06/16 01:21:32;;;;;;;13.20;3.65;;;21.50;99.90;;;;;;5076825;28;20027;-85
2022/06/16 01:24:12;;;;;;;6.18;3.33;;;21.50;99.90;;;;;;5074785;28;20029;-85
2022/06/16 01:27:09;;;;;;;12.60;4.10;;;21.50;99.90;;;;;;5073285;28;20020;-85
2022/06/16 01:29:46;;;;;;;10.40;3.60;;;21.40;99.90;;;;;;5072093;28;20107;-85
2022/06/16 01:32:14;;;;;;;10.63;3.40;;;21.40;99.90;;;;;;5085362;28;20041;-85
2022/06/16 01:35:10;;;;;;;9.98;3.50;;;21.40;99.90;;;;;;5082708;28;20374;-85
2022/06/16 01:37:59;;;;;;;8.57;3.63;;;21.40;99.90;;;;;;5077542;28;20514;-84
2022/06/16 01:40:28;;;;;;;8.85;2.97;;;21.40;99.90;;;;;;5091313;28;20035;-84
2022/06/16 01:43:04;;;;;;;6.38;3.22;;;21.40;99.90;;;;;;5078755;28;20017;-85
2022/06/16 01:45:37;;;;;;;7.18;3.50;;;21.30;99.90;;;;;;5085016;28;20031;-85
2022/06/16 01:48:07;;;;;;;7.88;3.28;;;21.20;99.90;;;;;;5076645;28;20137;-86
2022/06/16 01:50:36;;;;;;;9.90;3.25;;;21.30;99.90;;;;;;5079889;28;20016;-85
2022/06/16 01:53:11;;;;;;;7.30;3.28;;;21.30;99.90;;;;;;5065323;28;20028;-85
2022/06/16 01:55:46;;;;;;;9.52;3.90;;;21.30;99.90;;;;;;5077511;28;20538;-85
2022/06/16 01:58:24;;;;;;;7.40;3.60;;;21.20;99.90;;;;;;5073647;28;20040;-84
2022/06/16 02:00:52;;;;;;;8.82;3.83;;;21.30;99.90;;;;;;5071641;28;20396;-85
2022/06/16 02:03:25;;;;;;;9.32;3.42;;;21.30;99.90;;;;;;5061249;28;20086;-85
2022/06/16 02:06:02;;;;;;;8.70;3.45;;;21.30;99.90;;;;;;5090839;28;20442;-85
2022/06/16 02:08:49;;;;;;;8.10;3.65;;;21.30;99.90;;;;;;5077555;28;20024;-84
2022/06/16 02:11:27;;;;;;;8.48;4.07;;;21.30;99.90;;;;;;5085100;28;20039;-85
2022/06/16 02:14:07;;;;;;;10.57;3.75;;;21.30;99.90;;;;;;5077521;28;20017;-85
2022/06/16 02:16:35;;;;;;;13.82;3.78;;;21.30;99.90;;;;;;5075319;28;20024;-85
2022/06/16 02:19:04;;;;;;;9.77;3.78;;;21.20;99.90;;;;;;5076510;28;20033;-84
2022/06/16 02:21:36;;;;;;;6.97;3.65;;;21.20;99.90;;;;;;5073919;28;20012;-85
2022/06/16 02:24:07;;;;;;;10.57;3.35;;;21.20;99.90;;;;;;5080498;28;20024;-85
2022/06/16 02:26:34;;;;;;;8.63;3.47;;;21.20;99.90;;;;;;5053225;28;20016;-85
2022/06/16 02:29:18;;;;;;;7.65;3.80;;;21.20;99.90;;;;;;5053453;28;20036;-85
2022/06/16 02:31:58;;;;;;;8.47;3.80;;;21.20;99.90;;;;;;5087801;28;20016;-85
2022/06/16 02:34:46;;;;;;;7.18;3.33;;;21.10;99.90;;;;;;5079891;28;20467;-85
2022/06/16 02:37:21;;;;;;;8.60;3.42;;;21.10;99.90;;;;;;5075906;28;20121;-85
2022/06/16 02:40:08;;;;;;;9.18;3.72;;;21.20;99.90;;;;;;5068050;28;20020;-84
2022/06/16 02:43:11;;;;;;;9.63;4.00;;;21.10;99.90;;;;;;5086904;28;20138;-85
2022/06/16 02:46:04;;;;;;;7.97;3.67;;;21.10;99.90;;;;;;5075837;28;20046;-85
2022/06/16 02:48:40;;;;;;;8.02;3.58;;;21.10;99.90;;;;;;5078516;28;20020;-85
2022/06/16 02:51:16;;;;;;;6.70;4.05;;;21.10;99.90;;;;;;5072035;28;20024;-86
2022/06/16 02:56:31;;;;;;;7.82;3.70;;;21.00;99.90;;;;;;5073229;28;20056;-85
2022/06/16 02:59:03;;;;;;;13.05;3.75;;;21.00;99.90;;;;;;5074064;28;20499;-85
2022/06/16 03:01:31;;;;;;;12.73;4.05;;;21.00;99.90;;;;;;5071453;28;20479;-85
2022/06/16 03:04:10;;;;;;;11.38;4.45;;;21.00;99.90;;;;;;5069470;28;20031;-85
2022/06/16 03:06:36;;;;;;;8.50;4.30;;;20.90;99.90;;;;;;5084775;28;20544;-85
2022/06/16 03:09:04;;;;;;;9.15;4.20;;;20.90;99.90;;;;;;5079936;28;20024;-85
2022/06/16 03:11:34;;;;;;;5.88;3.60;;;21.00;99.90;;;;;;5076800;28;20016;-85
2022/06/16 03:14:00;;;;;;;14.85;4.47;;;20.90;99.90;;;;;;5077332;28;20033;-85
2022/06/16 03:16:26;;;;;;;6.25;3.75;;;20.90;99.90;;;;;;5068273;28;20032;-85
2022/06/16 03:18:52;;;;;;;10.45;4.20;;;21.00;99.90;;;;;;5075790;28;20023;-85
2022/06/16 03:21:18;;;;;;;11.23;4.10;;;20.90;99.90;;;;;;5074544;28;20079;-85
2022/06/16 03:23:43;;;;;;;8.68;3.45;;;21.00;99.90;;;;;;5072258;28;20032;-85
2022/06/16 03:26:09;;;;;;;10.95;4.30;;;21.00;99.90;;;;;;5072125;28;20247;-85
2022/06/16 03:28:35;;;;;;;7.60;3.58;;;21.10;99.90;;;;;;5070441;28;20369;-85
2022/06/16 03:31:02;;;;;;;7.03;4.13;;;21.10;99.90;;;;;;5086280;28;20028;-85
2022/06/16 03:33:27;;;;;;;7.75;3.80;;;21.10;99.90;;;;;;5079171;28;20047;-85
2022/06/16 03:35:54;;;;;;;9.70;4.03;;;21.00;99.90;;;;;;5076103;28;20035;-85
2022/06/16 03:41:01;;;;;;;7.40;4.05;;;21.00;99.90;;;;;;5084792;28;20047;-85
2022/06/16 03:43:26;;;;;;;9.30;3.80;;;21.10;99.90;;;;;;5081915;28;20418;-85
2022/06/16 03:45:52;;;;;;;7.05;3.15;;;21.10;99.90;;;;;;5077856;28;20035;-85
2022/06/16 03:48:18;;;;;;;6.85;3.50;;;21.10;99.90;;;;;;5052694;28;20021;-85
2022/06/16 03:50:43;;;;;;;6.85;3.50;;;21.10;99.90;;;;;;5077169;28;20036;-85
2022/06/16 03:53:09;;;;;;;7.72;3.75;;;21.10;99.90;;;;;;5073313;28;20031;-85
2022/06/16 03:55:35;;;;;;;7.55;3.33;;;21.10;99.90;;;;;;5075222;28;20111;-85
2022/06/16 03:58:01;;;;;;;10.52;4.38;;;21.10;99.90;;;;;;5071281;28;20112;-85
2022/06/16 04:00:27;;;;;;;7.70;3.80;;;21.00;99.90;;;;;;5052859;28;20134;-85
2022/06/16 04:03:59;;;;;;;8.43;4.20;;;21.10;99.90;;;;;;5070533;28;20443;-85
2022/06/16 04:05:39;;;;;;;5.72;3.47;;;21.00;99.90;;;;;;5073162;28;20066;-84
2022/06/16 04:08:06;;;;;;;7.30;3.55;;;21.10;99.90;;;;;;5078254;28;20036;-85
2022/06/16 04:10:32;;;;;;;7.90;3.50;;;21.00;99.90;;;;;;5076954;28;20512;-85
2022/06/16 04:12:58;;;;;;;9.43;3.40;;;21.00;99.90;;;;;;5077127;28;20017;-85
2022/06/16 04:15:24;;;;;;;8.75;3.92;;;21.00;99.90;;;;;;5073557;28;20036;-85
2022/06/16 04:17:49;;;;;;;8.50;3.40;;;21.10;99.90;;;;;;5076696;28;20059;-85
2022/06/16 04:20:15;;;;;;;6.75;3.80;;;21.10;99.90;;;;;;5072467;28;20116;-85
2022/06/16 04:22:42;;;;;;;8.88;3.88;;;21.10;99.90;;;;;;5073593;28;20013;-85
2022/06/16 04:25:14;;;;;;;5.55;3.33;;;21.10;99.90;;;;;;5070990;28;20032;-84
2022/06/16 04:27:41;;;;;;;7.05;3.70;;;21.10;99.90;;;;;;5070526;28;20098;-85
2022/06/16 04:30:07;;;;;;;6.85;4.15;;;21.10;99.90;;;;;;5078464;28;20031;-85
2022/06/16 04:32:33;;;;;;;7.95;4.20;;;21.10;99.90;;;;;;5081202;28;20048;-86
2022/06/16 04:34:59;;;;;;;8.27;3.80;;;21.10;99.90;;;;;;5079136;28;20071;-85
2022/06/16 04:37:24;;;;;;;14.13;4.38;;;21.10;99.90;;;;;;5074202;28;20051;-85
2022/06/16 04:39:50;;;;;;;10.98;3.90;;;21.10;99.90;;;;;;5078888;28;20045;-85
2022/06/16 04:42:16;;;;;;;8.77;3.70;;;21.10;99.90;;;;;;5070935;28;20016;-85
2022/06/16 04:44:41;;;;;;;8.45;3.55;;;21.20;99.90;;;;;;5081071;28;20500;-85
2022/06/16 04:47:08;;;;;;;8.30;4.18;;;21.20;99.90;;;;;;5079450;28;20039;-85
2022/06/16 04:49:34;;;;;;;7.72;4.00;;;21.20;99.90;;;;;;5073694;28;20217;-85
2022/06/16 04:51:59;;;;;;;6.63;3.88;;;21.30;99.90;;;;;;5067810;28;20016;-85
2022/06/16 04:54:25;;;;;;;9.60;3.80;;;21.30;99.90;;;;;;5082343;28;20032;-85
2022/06/16 04:56:51;;;;;;;5.93;4.18;;;21.30;99.90;;;;;;5073064;28;20503;-85
2022/06/16 04:59:17;;;;;;;9.73;4.30;;;21.30;99.90;;;;;;5071443;28;20535;-85
2022/06/16 05:01:42;;;;;;;6.43;3.58;;;21.30;99.90;;;;;;5070355;28;20098;-85
2022/06/16 05:04:09;;;;;;;5.47;3.50;;;21.30;99.90;;;;;;5070043;28;20499;-85
2022/06/16 05:06:35;;;;;;;8.82;4.00;;;21.30;99.90;;;;;;5075694;28;20113;-85
2022/06/16 05:09:01;;;;;;;6.25;3.55;;;21.30;99.90;;;;;;5078808;28;20107;-85
2022/06/16 05:11:26;;;;;;;8.93;3.67;;;21.40;99.90;;;;;;5079528;28;20035;-85
2022/06/16 05:13:52;;;;;;;8.48;3.92;;;21.40;99.90;;;;;;5078592;28;20036;-85
2022/06/16 05:16:17;;;;;;;11.75;4.07;;;21.30;99.90;;;;;;5064211;28;20116;-85
2022/06/16 05:18:43;;;;;;;11.07;3.97;;;21.40;99.90;;;;;;5078952;28;20115;-83
2022/06/16 05:21:13;;;;;;;8.68;3.90;;;21.40;99.90;;;;;;5078105;28;20025;-83
2022/06/16 05:23:38;;;;;;;7.78;3.80;;;21.40;99.90;;;;;;5074260;28;20438;-83
2022/06/16 05:26:06;;;;;;;6.20;3.50;;;21.50;99.90;;;;;;5074571;28;20017;-83
2022/06/16 05:28:32;;;;;;;10.02;4.10;;;21.50;99.90;;;;;;5075797;28;20032;-82
2022/06/16 05:30:58;;;;;;;7.70;3.65;;;21.60;99.90;;;;;;5085882;28;20496;-83
2022/06/16 05:33:24;;;;;;;7.85;3.80;;;21.60;99.90;;;;;;5083002;28;20401;-82
2022/06/16 05:36:04;;;;;;;8.45;3.42;;;21.60;99.90;;;;;;5067770;28;20050;-83
2022/06/16 05:38:30;;;;;;;7.45;4.57;;;21.70;99.90;;;;;;5084165;28;20487;-83
2022/06/16 05:40:56;;;;;;;9.50;3.80;;;21.70;99.90;;;;;;5082755;28;20032;-82
2022/06/16 05:43:22;;;;;;;7.95;3.60;;;21.70;99.90;;;;;;5084166;28;20020;-82
2022/06/16 05:45:48;;;;;;;7.22;3.88;;;21.70;99.90;;;;;;5088228;28;20020;-82
2022/06/16 05:48:13;;;;;;;9.85;3.60;;;21.70;99.90;;;;;;5088883;28;20066;-82
2022/06/16 05:50:39;;;;;;;12.85;3.70;;;21.70;99.90;;;;;;5068210;28;20028;-83
2022/06/16 05:53:05;;;;;;;7.40;3.88;;;21.80;99.90;;;;;;5073587;28;20044;-82
2022/06/16 05:55:30;;;;;;;7.57;3.90;;;21.90;99.90;;;;;;5085528;28;20032;-83
2022/06/16 05:57:56;;;;;;;6.65;3.60;;;22.00;99.90;;;;;;5085881;28;20047;-82
2022/06/16 06:00:22;;;;;;;11.95;3.85;;;22.00;99.90;;;;;;5085548;28;20020;-83
2022/06/16 06:02:51;;;;;;;9.80;3.90;;;22.00;99.90;;;;;;5089330;28;20021;-83
2022/06/16 06:05:17;;;;;;;10.07;4.30;;;22.10;99.90;;;;;;5088668;28;20211;-83
2022/06/16 06:18:40;;;;;;;9.52;3.47;;;22.30;99.90;;;;;;5082865;28;20003;-83
2022/06/16 06:21:05;;;;;;;10.65;3.97;;;22.20;99.90;;;;;;5080485;28;20059;-83
2022/06/16 06:23:31;;;;;;;8.13;3.70;;;22.30;99.90;;;;;;5082081;28;20491;-83
2022/06/16 06:25:57;;;;;;;8.60;4.00;;;22.40;99.90;;;;;;5085234;28;20020;-82
2022/06/16 06:28:23;;;;;;;8.02;3.67;;;22.40;99.90;;;;;;5076818;28;20167;-83
2022/06/16 06:30:49;;;;;;;9.48;3.80;;;22.60;99.90;;;;;;5071381;28;20025;-82
2022/06/16 06:33:15;;;;;;;7.45;3.67;;;22.60;99.90;;;;;;5078151;28;20144;-83
2022/06/16 06:35:41;;;;;;;10.18;3.40;;;22.50;99.90;;;;;;5082760;28;20128;-83
2022/06/16 06:38:07;;;;;;;7.78;3.55;;;22.60;99.90;;;;;;5076173;28;20025;-83
2022/06/16 06:40:35;;;;;;;10.55;4.05;;;22.70;99.90;;;;;;5082757;28;20070;-83
2022/06/16 06:43:01;;;;;;;8.98;3.85;;;22.70;99.90;;;;;;5083897;28;20279;-83
2022/06/16 06:45:27;;;;;;;11.43;4.07;;;22.70;99.90;;;;;;5081814;28;20550;-83
2022/06/16 06:47:53;;;;;;;12.25;3.97;;;22.80;99.90;;;;;;5076002;28;20044;-83
2022/06/16 06:50:32;;;;;;;10.10;3.63;;;22.90;99.90;;;;;;5078803;28;20020;-83
2022/06/16 06:52:58;;;;;;;7.00;3.28;;;23.00;99.90;;;;;;5074495;28;20031;-83
2022/06/16 06:55:24;;;;;;;6.70;3.45;;;23.20;99.90;;;;;;5052514;28;20115;-83
2022/06/16 06:57:52;;;;;;;7.93;3.33;;;23.20;99.90;;;;;;5073033;28;20021;-82
2022/06/16 07:00:20;;;;;;;7.70;3.58;;;23.30;99.90;;;;;;5073643;28;20028;-83
2022/06/16 07:02:46;;;;;;;7.65;3.90;;;23.30;99.90;;;;;;5071238;28;20020;-83
2022/06/16 07:05:11;;;;;;;9.25;3.97;;;23.30;99.90;;;;;;5070580;28;20484;-83
2022/06/16 07:07:38;;;;;;;7.72;3.45;;;23.40;99.90;;;;;;5076445;28;20023;-83
2022/06/16 07:10:07;;;;;;;9.25;3.70;;;23.40;99.90;;;;;;5083949;28;20028;-83
2022/06/16 07:12:34;;;;;;;7.38;3.55;;;23.40;99.90;;;;;;5080377;28;20061;-83
2022/06/16 07:15:00;;;;;;;8.27;3.20;;;23.40;99.90;;;;;;5083824;28;20119;-83
2022/06/16 07:17:26;;;;;;;7.18;3.83;;;23.40;99.90;;;;;;5077028;28;20588;-83
2022/06/16 07:19:53;;;;;;;8.00;3.25;;;23.50;99.90;;;;;;5073879;28;20025;-83
2022/06/16 07:22:19;;;;;;;5.40;3.33;;;23.50;99.90;;;;;;5073541;28;20066;-82
2022/06/16 07:24:46;;;;;;;5.70;3.25;;;23.50;99.90;;;;;;5072607;28;20032;-83
2022/06/16 07:27:12;;;;;;;6.65;3.55;;;23.50;99.90;;;;;;5071119;28;20020;-83
2022/06/16 07:29:38;;;;;;;6.40;3.38;;;23.50;99.90;;;;;;5070593;28;20020;-83
2022/06/16 07:32:04;;;;;;;8.27;3.28;;;23.40;99.90;;;;;;5075850;28;20501;-83
2022/06/16 07:34:31;;;;;;;7.60;3.72;;;23.40;99.90;;;;;;5079106;28;20484;-83
2022/06/16 07:36:56;;;;;;;9.88;3.47;;;23.50;99.90;;;;;;5077386;28;20025;-83
2022/06/16 07:39:22;;;;;;;7.47;3.22;;;23.50;99.90;;;;;;5071168;28;20024;-83
2022/06/16 07:41:48;;;;;;;5.15;2.90;;;23.60;99.90;;;;;;5089404;28;20008;-83
2022/06/16 07:44:16;;;;;;;9.27;3.70;;;23.60;99.90;;;;;;5078999;28;20103;-83
2022/06/16 07:46:43;;;;;;;10.02;3.35;;;23.80;99.90;;;;;;5076891;28;20025;-83
2022/06/16 07:49:15;;;;;;;5.65;2.80;;;23.90;99.90;;;;;;5063500;28;20489;-83
2022/06/16 07:51:42;;;;;;;12.35;3.80;;;24.10;99.90;;;;;;5074743;28;20074;-83
2022/06/16 07:54:10;;;;;;;6.07;2.90;;;24.30;99.90;;;;;;5075767;28;20584;-83
2022/06/16 07:56:36;;;;;;;6.57;2.83;;;24.50;99.90;;;;;;5072616;28;20031;-83
2022/06/16 07:59:02;;;;;;;7.28;2.83;;;24.70;99.90;;;;;;5074125;28;20017;-83
2022/06/16 08:01:28;;;;;;;6.45;2.80;;;24.80;99.90;;;;;;5071014;28;20031;-83
2022/06/16 08:03:54;;;;;;;6.85;3.20;;;25.00;99.90;;;;;;5071007;28;20059;-83
2022/06/16 08:06:26;;;;;;;8.57;3.22;;;25.20;99.90;;;;;;5079062;28;20127;-83
2022/06/16 08:08:56;;;;;;;7.90;3.00;;;25.30;99.90;;;;;;5081545;28;20225;-83
2022/06/16 08:14:06;;;;;;;;;;;26.00;99.90;;;;;;5078439;28;20026;-83
2022/06/16 08:16:33;;;;;;;4.00;2.58;;;26.30;99.90;;;;;;5074589;28;19904;-83
2022/06/16 08:18:59;;;;;;;5.72;2.50;;;26.50;99.90;;;;;;5074691;28;20020;-83
2022/06/16 08:21:25;;;;;;;6.07;2.53;;;26.70;99.90;;;;;;5073540;28;20020;-83
2022/06/16 08:23:51;;;;;;;8.30;2.42;;;26.80;99.90;;;;;;5071784;28;20021;-83
2022/06/16 08:26:16;;;;;;;4.40;2.45;;;26.80;99.20;;;;;;5072091;28;20032;-83
2022/06/16 08:28:42;;;;;;;5.13;2.47;;;26.70;99.00;;;;;;5070331;28;20108;-83
2022/06/16 08:31:09;;;;;;;9.25;2.85;;;26.70;99.20;;;;;;5073470;28;20095;-84
2022/06/16 08:33:35;;;;;;;6.95;2.50;;;26.70;99.10;;;;;;5078335;28;20067;-83
2022/06/16 08:36:01;;;;;;;7.75;2.53;;;26.70;99.00;;;;;;5076645;28;20039;-83
2022/06/16 08:38:26;;;;;;;9.32;2.83;;;26.70;98.80;;;;;;5077601;28;20013;-83
2022/06/16 08:41:13;;;;;;;4.57;2.33;;;26.70;99.00;;;;;;5082491;28;20047;-83
2022/06/16 08:43:53;;;;;;;4.28;2.10;;;26.70;98.60;;;;;;5082319;28;20040;-83
2022/06/16 08:46:19;;;;;;;5.03;2.38;;;26.70;99.30;;;;;;5078811;28;20037;-83
2022/06/16 08:49:02;;;;;;;9.02;2.80;;;26.90;99.10;;;;;;5089401;28;20058;-83
2022/06/16 08:51:53;;;;;;;15.65;3.33;;;27.00;98.50;;;;;;5077508;28;20028;-83
2022/06/16 08:54:37;;;;;;;8.73;2.60;;;27.10;98.00;;;;;;5076285;28;20025;-83
2022/06/16 08:57:12;;;;;;;;;;;27.30;98.00;;;;;;5078737;28;20099;-83
2022/06/16 08:59:46;;;;;;;;;;;27.40;97.90;;;;;;5075448;28;19904;-83
2022/06/16 09:02:25;;;;;;;9.90;2.65;;;27.60;97.80;;;;;;5075337;28;19904;-83
2022/06/16 09:05:25;;;;;;;7.20;2.70;;;27.70;97.70;;;;;;5073797;28;20029;-84
2022/06/16 09:07:54;;;;;;;7.13;2.80;;;27.90;97.10;;;;;;5068158;28;20042;-83
2022/06/16 09:10:29;;;;;;;11.52;2.88;;;28.00;97.30;;;;;;5078829;28;20028;-83
2022/06/16 09:13:32;;;;;;;5.15;2.50;;;28.00;96.60;;;;;;5082035;28;20020;-83
2022/06/16 09:15:58;;;;;;;5.55;2.53;;;28.20;96.50;;;;;;5080886;28;20076;-83
2022/06/16 09:18:44;;;;;;;12.13;2.85;;;28.20;96.00;;;;;;5076248;28;20025;-83
2022/06/16 09:21:20;;;;;;;7.30;2.80;;;28.30;95.90;;;;;;5078462;28;20054;-83
2022/06/16 09:24:04;;;;;;;4.40;2.40;;;28.40;95.90;;;;;;5074978;28;20490;-83
2022/06/16 09:26:41;;;;;;;8.35;2.40;;;28.50;95.20;;;;;;5073677;28;20062;-84
2022/06/16 09:29:23;;;;;;;5.82;2.22;;;28.60;95.20;;;;;;5073525;28;20530;-83
2022/06/16 09:31:55;;;;;;;9.65;2.40;;;28.70;94.70;;;;;;5079014;28;20051;-83
2022/06/16 09:34:54;;;;;;;6.32;2.50;;;28.90;94.90;;;;;;5080349;28;20024;-84
2022/06/16 09:37:35;;;;;;;6.82;2.50;;;29.10;94.40;;;;;;5071034;28;20122;-83
2022/06/16 09:40:10;;;;;;;8.88;2.63;;;29.20;93.90;;;;;;5087286;28;20408;-83
2022/06/16 09:42:41;;;;;;;11.02;2.63;;;29.40;93.70;;;;;;5091648;28;20459;-86
2022/06/16 09:45:11;;;;;;;4.15;2.30;;;29.60;92.90;;;;;;5084076;28;20115;-83
2022/06/16 09:47:43;;;;;;;6.78;2.67;;;29.70;92.40;;;;;;5079680;28;20059;-83
2022/06/16 09:50:18;;;;;;;7.28;2.30;;;29.70;92.40;;;;;;5069628;28;20112;-83
2022/06/16 09:52:59;;;;;;;8.52;2.58;;;29.80;92.00;;;;;;5073061;28;20070;-83
2022/06/16 09:55:36;;;;;;;9.43;2.38;;;29.90;91.70;;;;;;5066068;28;20081;-83
2022/06/16 09:58:14;;;;;;;6.50;2.30;;;29.90;91.40;;;;;;5079021;28;20111;-83
2022/06/16 10:00:40;;;;;;;8.13;2.38;;;29.90;90.60;;;;;;5075102;28;20111;-84
2022/06/16 10:03:32;;;;;;;6.13;2.38;;;29.90;90.20;;;;;;5064219;28;20028;-83
2022/06/16 10:06:10;;;;;;;4.82;2.20;;;30.00;88.50;;;;;;5049101;28;20032;-83
2022/06/16 10:09:03;;;;;;;7.30;2.83;;;30.10;88.00;;;;;;5078509;28;20128;-83
2022/06/16 10:11:40;;;;;;;6.93;2.30;;;30.20;86.80;;;;;;5077342;28;20067;-83
2022/06/16 10:14:29;;;;;;;5.45;1.77;;;30.30;85.10;;;;;;5079675;28;20500;-83
2022/06/16 10:17:24;;;;;;;6.93;2.22;;;30.30;85.10;;;;;;5075802;28;20056;-83
2022/06/16 10:19:52;;;;;;;9.18;2.20;;;30.40;84.30;;;;;;5063103;28;20028;-83
2022/06/16 10:22:23;;;;;;;8.68;2.00;;;30.50;83.70;;;;;;5067630;28;20388;-83
2022/06/16 10:25:15;;;;;;;7.35;2.28;;;30.60;83.10;;;;;;5073920;28;20070;-83
2022/06/16 10:27:50;;;;;;;9.25;2.30;;;30.70;83.40;;;;;;5067426;28;20036;-83
2022/06/16 10:30:26;;;;;;;11.38;2.13;;;30.80;82.40;;;;;;5074730;28;20446;-83
2022/06/16 10:33:08;;;;;;;6.20;1.90;;;30.80;81.50;;;;;;5088310;28;20044;-84
2022/06/16 10:35:36;;;;;;;5.72;2.38;;;30.90;80.90;;;;;;5077014;28;20500;-83
2022/06/16 10:38:02;;;;;;;8.15;2.10;;;31.10;81.30;;;;;;5080710;28;20488;-83
2022/06/16 10:40:34;;;;;;;4.45;2.03;;;31.10;81.90;;;;;;5081259;28;20129;-84
2022/06/16 10:43:08;;;;;;;7.13;2.25;;;31.20;80.80;;;;;;5077855;28;20541;-83
2022/06/16 10:45:35;;;;;;;6.35;2.20;;;31.30;81.80;;;;;;5083902;28;20473;-83
2022/06/16 10:48:28;;;;;;;6.70;2.33;;;31.50;80.90;;;;;;5076337;28;20013;-83
2022/06/16 10:51:16;;;;;;;9.45;2.20;;;31.70;79.80;;;;;;5075132;28;20039;-83
2022/06/16 10:53:59;;;;;;;11.52;2.55;;;31.80;78.00;;;;;;5084358;28;20034;-83
2022/06/16 10:56:26;;;;;;;9.85;2.42;;;31.90;78.90;;;;;;5073454;28;20060;-83
2022/06/16 10:59:05;;;;;;;7.30;2.10;;;32.10;78.00;;;;;;5074978;28;20016;-83
2022/06/16 11:01:40;;;;;;;5.68;2.10;;;32.20;77.70;;;;;;5072107;28;20016;-84
2022/06/16 11:04:22;;;;;;;7.53;2.22;;;32.30;78.10;;;;;;5072110;28;20117;-83
2022/06/16 11:06:52;;;;;;;6.38;2.30;;;32.50;77.90;;;;;;5070971;28;20024;-83
2022/06/16 11:09:30;;;;;;;7.38;2.50;;;32.70;77.30;;;;;;5082846;28;20154;-83
2022/06/16 11:12:04;;;;;;;4.05;2.00;;;32.80;76.90;;;;;;5075820;28;20020;-83
2022/06/16 11:14:55;;;;;;;4.93;2.10;;;32.90;76.10;;;;;;5083243;28;20058;-83
2022/06/16 11:17:25;;;;;;;7.50;2.00;;;33.00;76.30;;;;;;5076540;28;20024;-83
2022/06/16 11:20:10;;;;;;;5.85;2.42;;;33.10;75.30;;;;;;5074530;28;20028;-84
2022/06/16 11:22:40;;;;;;;4.22;2.15;;;33.10;74.60;;;;;;5075095;28;20504;-84
2022/06/16 11:25:21;;;;;;;5.78;2.15;;;33.10;74.40;;;;;;5072167;28;20484;-83
2022/06/16 11:27:57;;;;;;;8.27;2.40;;;33.10;75.00;;;;;;5072301;28;20020;-83
2022/06/16 11:30:53;;;;;;;8.10;2.10;;;33.10;75.00;;;;;;5070504;28;20021;-84
2022/06/16 11:36:25;;;;;;;7.28;1.98;;;33.40;74.50;;;;;;5080898;28;20043;-84
2022/06/16 11:38:59;;;;;;;6.15;2.13;;;33.40;73.50;;;;;;5083233;28;20049;-83
2022/06/16 11:41:26;;;;;;;6.47;2.28;;;33.50;74.60;;;;;;5073791;28;20111;-84
2022/06/16 11:44:20;;;;;;;7.47;1.95;;;33.70;74.60;;;;;;5089539;28;20031;-83
2022/06/16 11:46:53;;;;;;;;;;;33.90;72.60;;;;;;5078781;28;20043;-84
2022/06/16 11:49:37;;;;;;;10.75;2.10;;;33.90;71.40;;;;;;5077153;28;19904;-83
2022/06/16 11:52:12;;;;;;;4.53;2.13;;;34.00;71.00;;;;;;5078033;28;20027;-84
2022/06/16 11:54:37;;;;;;;6.50;2.28;;;34.10;69.60;;;;;;5061508;28;20035;-83
2022/06/16 11:57:26;;;;;;;7.13;2.45;;;34.20;68.50;;;;;;5072663;28;20021;-84
2022/06/16 12:00:00;;;;;;;6.30;2.20;;;34.20;70.10;;;;;;5072028;28;20017;-83
2022/06/16 12:03:02;;;;;;;5.65;2.03;;;34.30;70.50;;;;;;5072448;28;20055;-84
2022/06/16 12:06:14;;;;;;;7.43;1.90;;;34.50;70.30;;;;;;5070668;28;20102;-83
2022/06/16 12:09:25;;;;;;;9.65;2.72;;;34.70;69.80;;;;;;4969702;28;20124;-84
2022/06/16 12:12:03;;;;;;;9.40;2.20;;;34.80;69.00;;;;;;5038111;28;20039;-84
2022/06/16 12:15:01;;;;;;;6.40;2.00;;;35.00;69.40;;;;;;5074169;28;20297;-84
2022/06/16 12:17:36;;;;;;;4.50;2.10;;;35.30;68.30;;;;;;5076345;28;20089;-84
2022/06/16 12:20:46;;;;;;;6.38;2.05;;;35.30;68.80;;;;;;5075849;28;20037;-83
2022/06/16 12:23:17;;;;;;;7.43;2.20;;;35.50;67.50;;;;;;5052620;28;20032;-84
2022/06/16 12:26:00;;;;;;;10.40;2.53;;;35.60;67.70;;;;;;5076538;28;20058;-84
2022/06/16 12:28:36;;;;;;;6.90;2.30;;;35.90;66.40;;;;;;5074617;28;20028;-83
2022/06/16 12:31:32;;;;;;;4.95;1.90;;;36.00;65.50;;;;;;5074092;28;20021;-84
2022/06/16 12:34:33;;;;;;;5.13;2.63;;;36.20;65.60;;;;;;5079898;28;20269;-84
2022/06/16 12:37:07;;;;;;;3.38;1.83;;;36.30;65.10;;;;;;5086570;28;20049;-84
2022/06/16 12:39:40;;;;;;;6.68;2.00;;;36.50;64.20;;;;;;5078426;28;20020;-84
2022/06/16 12:42:12;;;;;;;9.38;2.40;;;36.50;64.30;;;;;;5086568;28;20020;-84
2022/06/16 12:44:45;;;;;;;11.13;2.10;;;36.70;63.60;;;;;;5079881;28;20547;-84
2022/06/16 12:47:22;;;;;;;5.10;1.85;;;36.90;63.50;;;;;;5091347;28;20432;-84
2022/06/16 12:49:59;;;;;;;7.18;1.92;;;37.10;62.70;;;;;;5078472;28;20496;-84
2022/06/16 12:52:54;;;;;;;9.30;2.13;;;37.20;62.30;;;;;;5086073;28;20426;-84
2022/06/16 12:55:27;;;;;;;10.27;2.28;;;37.20;62.20;;;;;;5076900;28;20079;-85
2022/06/16 12:58:34;;;;;;;6.35;2.17;;;37.50;62.10;;;;;;5075750;28;20059;-84
2022/06/16 13:01:05;;;;;;;4.95;1.73;;;37.80;61.70;;;;;;5074523;28;20056;-84
2022/06/16 13:03:47;;;;;;;5.30;1.80;;;38.00;62.20;;;;;;5074148;28;20541;-84
2022/06/16 13:06:15;;;;;;;8.70;2.35;;;38.00;61.90;;;;;;5073196;28;20488;-84
2022/06/16 13:08:44;;;;;;;7.57;2.00;;;38.20;62.10;;;;;;5080244;28;20033;-84
2022/06/16 13:11:18;;;;;;;5.05;1.88;;;38.50;61.50;;;;;;5084165;28;20127;-83
2022/06/16 13:13:58;;;;;;;7.38;2.05;;;38.80;60.80;;;;;;5078193;28;20027;-84
2022/06/16 13:16:29;;;;;;;6.05;1.77;;;39.00;59.90;;;;;;5079370;28;20028;-84
2022/06/16 13:19:14;;;;;;;7.72;1.90;;;39.40;59.40;;;;;;5068796;28;20315;-85
2022/06/16 13:21:47;;;;;;;6.35;2.33;;;38.90;61.90;;;;;;5075416;28;20089;-84
2022/06/16 13:24:23;;;;;;;6.10;2.00;;;39.00;61.00;;;;;;5058830;28;20025;-84
2022/06/16 13:27:07;;;;;;;5.18;2.15;;;39.00;61.00;;;;;;5064233;28;20028;-84
2022/06/16 13:29:50;;;;;;;6.00;2.13;;;38.60;61.10;;;;;;5075468;28;20023;-84
2022/06/16 13:32:48;;;;;;;6.90;2.42;;;38.30;62.60;;;;;;5071960;28;20059;-85
2022/06/16 13:35:13;;;;;;;6.65;2.40;;;39.30;62.00;;;;;;5060111;28;20032;-84
2022/06/16 13:37:42;;;;;;;4.18;1.63;;;40.30;61.50;;;;;;5078817;28;20040;-85
2022/06/16 13:40:08;;;;;;;5.38;1.83;;;41.00;58.40;;;;;;5082436;28;20016;-84